Aviation Digital Data Service (ADDS)

Output produced by METARs form (2053 UTC 29 May 2017)
found at http://www.aviationweather.gov/adds/metars/
 
VGEG 291700Z 30008KT 4000 RERA SCT015 FEW028CB OVC080 26/24 Q0996 NOSIG
TAF VGEG 291700Z 2918/3024 13012KT 4500 SCT016 BKN100 
     BECMG 2921/2923 09012KT 4000 SCT015 BKN120 
     TEMPO 3001/3010 08030G40KT 1000 RA/TSRA BKN006 FEW025CB OVC080 
     BECMG 3011/3013 09012KT SCT015 BKN120 
     TEMPO 3014/3017 0825G35KT 1000 RA/TSRA BKN006 FEW025CB OVC080